createdAt,value
2018-08-04T00:00:20.305Z,74.80
2018-08-04T00:02:47.948Z,75.30
2018-08-04T00:07:43.075Z,75.40
2018-08-04T00:12:48.560Z,75.80
2018-08-04T00:15:16.251Z,75.80
2018-08-04T00:17:44.098Z,75.60
2018-08-04T00:20:11.749Z,75.80
2018-08-04T00:22:40.024Z,76.10
2018-08-04T00:25:07.634Z,76.40
2018-08-04T00:27:35.209Z,76.40
2018-08-04T00:32:31.169Z,76.00
2018-08-04T00:34:58.786Z,75.90
2018-08-04T00:37:26.476Z,76.00
2018-08-04T00:39:54.089Z,76.40
2018-08-04T00:42:21.662Z,76.70
2018-08-04T00:44:49.247Z,76.60
2018-08-04T00:47:16.834Z,76.90
2018-08-04T00:49:44.395Z,77.00
2018-08-04T00:52:12.104Z,76.80
2018-08-04T00:54:39.672Z,76.90
2018-08-04T00:57:07.229Z,76.70
2018-08-04T00:59:34.815Z,77.00
2018-08-04T01:02:02.468Z,77.30
2018-08-04T01:04:30.013Z,77.30
2018-08-04T01:06:57.628Z,77.40
2018-08-04T01:09:25.173Z,77.40
2018-08-04T01:11:52.803Z,77.40
2018-08-04T01:14:20.985Z,77.80
2018-08-04T01:16:48.536Z,77.70
2018-08-04T01:19:16.204Z,77.80
2018-08-04T01:21:43.805Z,78.00
2018-08-04T01:24:11.369Z,78.40
2018-08-04T01:26:38.960Z,77.90
2018-08-04T01:29:06.510Z,77.90
2018-08-04T01:31:34.103Z,77.90
2018-08-04T01:34:01.749Z,78.00
2018-08-04T01:36:29.299Z,77.90
2018-08-04T01:38:56.933Z,77.70
2018-08-04T01:41:24.509Z,77.30
2018-08-04T01:43:52.591Z,77.20
2018-08-04T01:46:20.160Z,77.60
2018-08-04T01:48:47.724Z,77.50
2018-08-04T01:51:15.282Z,77.50
2018-08-04T01:53:42.945Z,77.50
2018-08-04T01:56:10.504Z,77.70
2018-08-04T01:58:38.062Z,77.70
2018-08-04T02:01:05.723Z,77.90
2018-08-04T02:03:33.274Z,78.10
2018-08-04T02:06:00.867Z,77.90
2018-08-04T02:08:28.443Z,77.80
2018-08-04T02:10:56.024Z,78.20
2018-08-04T02:13:23.747Z,78.20
2018-08-04T02:15:51.304Z,78.50
2018-08-04T02:18:18.861Z,78.70
2018-08-04T02:20:46.419Z,78.80
2018-08-04T02:23:13.990Z,78.60
2018-08-04T02:25:41.558Z,78.70
2018-08-04T02:28:09.139Z,78.80
2018-08-04T02:30:36.750Z,79.00
2018-08-04T02:33:04.329Z,79.10
2018-08-04T02:35:31.937Z,78.90
2018-08-04T02:37:59.528Z,78.80
2018-08-04T02:40:27.901Z,78.70
2018-08-04T02:42:56.465Z,79.10
2018-08-04T02:45:25.571Z,79.20
2018-08-04T02:47:53.119Z,79.30
2018-08-04T02:50:20.689Z,79.80
2018-08-04T02:52:48.297Z,79.90
2018-08-04T02:55:15.903Z,79.70
2018-08-04T02:57:43.468Z,79.50
2018-08-04T03:00:11.055Z,79.40
2018-08-04T03:02:38.639Z,79.50
2018-08-04T03:05:06.669Z,79.20
2018-08-04T03:07:34.281Z,79.40
2018-08-04T03:10:01.857Z,79.20
2018-08-04T03:12:29.433Z,79.30
2018-08-04T03:14:57.045Z,79.30
2018-08-04T03:17:24.643Z,79.30
2018-08-04T03:19:52.171Z,78.60
2018-08-04T03:22:19.735Z,79.00
2018-08-04T03:24:47.308Z,79.20
2018-08-04T03:27:14.874Z,79.40
2018-08-04T03:29:42.452Z,79.50
2018-08-04T03:32:10.033Z,79.50
2018-08-04T03:34:37.595Z,79.60
2018-08-04T03:37:05.235Z,79.70
2018-08-04T03:39:32.771Z,79.50
2018-08-04T03:42:00.333Z,79.50
2018-08-04T03:44:27.902Z,79.50
2018-08-04T03:46:55.462Z,79.80
2018-08-04T03:49:23.166Z,79.80
2018-08-04T03:51:50.761Z,79.70
2018-08-04T03:54:18.317Z,79.60
2018-08-04T03:56:45.936Z,79.50
2018-08-04T03:59:13.482Z,79.80
2018-08-04T04:01:41.551Z,80.00
2018-08-04T04:04:09.146Z,80.00
2018-08-04T04:06:37.861Z,80.00
2018-08-04T04:09:07.443Z,80.10
2018-08-04T04:11:35.097Z,80.30
2018-08-04T04:14:02.772Z,80.50
2018-08-04T04:16:30.332Z,80.50
2018-08-04T04:18:58.046Z,80.50
2018-08-04T04:21:25.609Z,80.50
2018-08-04T04:23:53.151Z,80.40
2018-08-04T04:26:20.753Z,80.30
2018-08-04T04:28:48.335Z,80.10
2018-08-04T04:31:15.946Z,80.10
2018-08-04T04:33:43.545Z,80.20
2018-08-04T04:36:11.163Z,80.10
2018-08-04T04:38:38.715Z,79.90
2018-08-04T04:41:07.188Z,80.00
2018-08-04T04:43:34.767Z,80.50
2018-08-04T04:46:02.435Z,80.60
2018-08-04T04:48:29.995Z,80.60
2018-08-04T04:50:57.548Z,80.30
2018-08-04T04:53:25.114Z,80.50
2018-08-04T04:55:53.763Z,80.40
2018-08-04T04:58:21.325Z,80.50
2018-08-04T05:00:48.952Z,80.50
2018-08-04T05:03:16.564Z,80.60
2018-08-04T05:05:44.137Z,80.60
2018-08-04T05:08:11.687Z,80.40
2018-08-04T05:10:39.275Z,80.50
2018-08-04T05:13:07.504Z,80.50
2018-08-04T05:15:35.090Z,80.30
2018-08-04T05:18:02.679Z,80.00
2018-08-04T05:20:30.282Z,80.20
2018-08-04T05:22:57.941Z,80.30
2018-08-04T05:25:25.538Z,80.30
2018-08-04T05:27:53.169Z,79.70
2018-08-04T05:30:20.765Z,79.60
2018-08-04T05:32:48.402Z,80.00
2018-08-04T05:35:16.533Z,80.00
2018-08-04T05:37:44.111Z,80.00
2018-08-04T05:40:11.693Z,80.00
2018-08-04T05:42:39.227Z,79.70
2018-08-04T05:45:07.831Z,79.30
2018-08-04T05:47:35.550Z,79.40
2018-08-04T05:50:04.141Z,79.40
2018-08-04T05:52:31.741Z,79.40
2018-08-04T05:54:59.318Z,79.20
2018-08-04T05:57:26.905Z,78.60
2018-08-04T05:59:54.504Z,78.70
2018-08-04T06:02:22.102Z,78.70
2018-08-04T06:04:49.663Z,77.70
2018-08-04T06:07:17.220Z,78.30
2018-08-04T06:12:12.328Z,78.60
2018-08-04T06:14:39.887Z,79.00
2018-08-04T06:17:07.462Z,79.20
2018-08-04T06:19:35.179Z,78.90
2018-08-04T06:22:02.805Z,78.30
2018-08-04T06:24:30.320Z,78.40
2018-08-04T06:26:57.919Z,78.10
2018-08-04T06:29:25.520Z,78.10
2018-08-04T06:31:53.333Z,78.10
2018-08-04T06:34:20.953Z,78.00
2018-08-04T06:36:48.641Z,78.00
2018-08-04T06:39:16.276Z,78.00
2018-08-04T06:41:43.950Z,77.30
2018-08-04T06:44:11.480Z,77.20
2018-08-04T06:46:39.059Z,76.40
2018-08-04T06:49:06.735Z,75.90
2018-08-04T06:51:34.347Z,75.80
2018-08-04T06:54:02.614Z,75.70
2018-08-04T06:58:58.613Z,74.90
2018-08-04T07:01:26.220Z,74.30
2018-08-04T07:03:53.923Z,73.50
2018-08-04T07:06:22.081Z,72.30
2018-08-04T07:08:49.682Z,71.80
2018-08-04T07:11:18.075Z,72.10
2018-08-04T07:13:45.682Z,71.50
2018-08-04T07:16:13.332Z,71.30
2018-08-04T07:18:40.940Z,71.50
2018-08-04T07:21:08.595Z,71.60
2018-08-04T07:23:36.136Z,71.60
2018-08-04T07:26:03.802Z,71.20
2018-08-04T07:28:31.348Z,70.60
2018-08-04T07:30:58.893Z,70.40
2018-08-04T07:33:27.057Z,70.50
2018-08-04T07:35:54.713Z,70.60
2018-08-04T07:38:22.881Z,69.80
2018-08-04T07:40:50.550Z,69.30
2018-08-04T07:43:18.143Z,69.40
2018-08-04T07:45:45.766Z,69.40
2018-08-04T07:50:40.944Z,69.10
2018-08-04T07:53:08.535Z,69.30
2018-08-04T07:55:36.145Z,69.10
2018-08-04T07:58:03.881Z,69.20
2018-08-04T08:00:31.510Z,68.50
2018-08-04T08:02:59.109Z,68.20
2018-08-04T08:05:26.719Z,68.30
2018-08-04T08:07:54.337Z,68.30
2018-08-04T08:10:21.931Z,67.40
2018-08-04T08:12:49.612Z,67.40
2018-08-04T08:15:17.507Z,67.60
2018-08-04T08:17:45.125Z,67.20
2018-08-04T08:20:12.836Z,66.90
2018-08-04T08:22:41.627Z,66.90
2018-08-04T08:25:09.651Z,65.70
2018-08-04T08:27:37.578Z,65.50
2018-08-04T08:30:07.546Z,65.00
2018-08-04T08:32:35.161Z,64.00
2018-08-04T08:35:02.899Z,64.00
2018-08-04T08:37:30.480Z,64.10
2018-08-04T08:39:58.109Z,63.90
2018-08-04T08:42:25.835Z,63.40
2018-08-04T08:44:54.491Z,62.90
2018-08-04T08:47:22.106Z,62.80
2018-08-04T08:49:49.782Z,61.90
2018-08-04T08:52:18.406Z,61.70
2018-08-04T08:54:46.210Z,61.00
2018-08-04T08:57:13.861Z,61.30
2018-08-04T08:59:41.552Z,59.70
2018-08-04T09:04:36.887Z,59.40
2018-08-04T09:07:04.648Z,59.10
2018-08-04T09:09:32.257Z,60.10
2018-08-04T09:11:59.824Z,59.90
2018-08-04T09:14:27.466Z,59.00
2018-08-04T09:16:55.093Z,57.40
2018-08-04T09:19:22.714Z,58.20
2018-08-04T09:21:50.340Z,57.20
2018-08-04T09:24:17.881Z,56.20
2018-08-04T09:26:45.488Z,56.90
2018-08-04T09:29:13.128Z,57.70
2018-08-04T09:31:40.824Z,57.70
2018-08-04T09:34:08.411Z,57.50
2018-08-04T09:39:07.279Z,57.10
2018-08-04T09:41:34.867Z,55.70
2018-08-04T09:46:30.151Z,54.20
2018-08-04T09:48:57.774Z,52.70
2018-08-04T09:51:25.404Z,53.70
2018-08-04T09:53:52.950Z,53.90
2018-08-04T09:56:23.464Z,54.10
2018-08-04T09:58:51.172Z,54.60
2018-08-04T10:03:52.954Z,53.70
2018-08-04T10:06:20.787Z,53.60
2018-08-04T10:08:48.456Z,51.80
2018-08-04T10:11:16.181Z,51.40
2018-08-04T10:13:43.815Z,51.70
2018-08-04T10:16:12.318Z,51.60
2018-08-04T10:18:39.933Z,50.20
2018-08-04T10:21:07.609Z,51.50
2018-08-04T10:23:35.284Z,51.40
2018-08-04T10:26:03.005Z,50.70
2018-08-04T10:28:30.560Z,51.00
2018-08-04T10:30:58.194Z,50.80
2018-08-04T10:33:25.816Z,50.60
2018-08-04T10:35:53.567Z,48.60
2018-08-04T10:38:21.111Z,49.20
2018-08-04T10:40:48.732Z,49.00
2018-08-04T10:43:16.311Z,47.20
2018-08-04T10:45:43.973Z,48.20
2018-08-04T10:48:11.624Z,48.10
2018-08-04T10:50:39.453Z,47.70
2018-08-04T10:53:07.175Z,48.30
2018-08-04T10:55:35.120Z,47.70
2018-08-04T10:58:04.193Z,49.20
2018-08-04T11:00:32.247Z,50.20
2018-08-04T11:02:59.849Z,51.90
2018-08-04T11:05:27.430Z,55.00
2018-08-04T11:07:55.068Z,55.50
2018-08-04T11:10:23.678Z,56.70
2018-08-04T11:12:51.589Z,59.60
2018-08-04T11:15:19.355Z,63.00
2018-08-04T11:17:47.659Z,60.50
2018-08-04T11:20:15.271Z,62.50
2018-08-04T11:22:42.924Z,64.50
2018-08-04T11:25:10.567Z,63.70
2018-08-04T11:27:38.203Z,65.30
2018-08-04T11:30:06.840Z,66.90
2018-08-04T11:32:34.433Z,67.20
2018-08-04T11:35:03.003Z,64.90
2018-08-04T11:37:30.611Z,60.50
2018-08-04T11:39:58.224Z,55.10
2018-08-04T11:42:25.862Z,51.00
2018-08-04T11:44:53.523Z,45.80
2018-08-04T11:49:48.605Z,37.60
2018-08-04T11:52:16.282Z,35.90
2018-08-04T11:54:43.856Z,35.20
2018-08-04T11:57:11.455Z,36.20
2018-08-04T11:59:39.054Z,34.50
2018-08-04T12:02:06.765Z,31.50
2018-08-04T12:04:36.583Z,31.90
2018-08-04T12:07:04.236Z,30.10
2018-08-04T12:09:31.928Z,29.00
2018-08-04T12:11:59.598Z,27.30
2018-08-04T12:14:27.262Z,26.60
2018-08-04T12:16:54.850Z,25.50
2018-08-04T12:19:22.493Z,25.20
2018-08-04T12:21:50.128Z,25.60
2018-08-04T12:24:17.739Z,24.60
2018-08-04T12:26:45.310Z,23.80
2018-08-04T12:29:13.199Z,22.30
2018-08-04T12:31:40.841Z,22.50
2018-08-04T12:34:08.436Z,21.90
2018-08-04T12:36:37.083Z,23.10
2018-08-04T12:39:07.473Z,23.00
2018-08-04T12:41:35.097Z,23.10
2018-08-04T12:44:03.043Z,22.80
2018-08-04T12:46:30.629Z,24.40
2018-08-04T12:48:58.269Z,24.10
2018-08-04T12:51:25.929Z,23.70
2018-08-04T12:53:53.603Z,23.90
2018-08-04T12:56:27.854Z,23.50
2018-08-04T12:58:55.430Z,23.10
2018-08-04T13:01:23.047Z,22.60
2018-08-04T13:03:50.694Z,22.10
2018-08-04T13:06:18.317Z,21.50
2018-08-04T13:08:46.022Z,23.30
2018-08-04T13:11:13.593Z,23.80
2018-08-04T13:13:41.201Z,22.60
2018-08-04T13:16:09.575Z,22.90
2018-08-04T13:18:37.188Z,23.40
2018-08-04T13:21:04.890Z,23.40
2018-08-04T13:23:32.450Z,23.00
2018-08-04T13:26:00.562Z,23.40
2018-08-04T13:28:28.319Z,22.70
2018-08-04T13:30:56.012Z,23.60
2018-08-04T13:33:23.760Z,25.20
2018-08-04T13:35:51.458Z,24.30
2018-08-04T13:38:19.162Z,27.60
2018-08-04T13:40:46.937Z,28.70
2018-08-04T13:43:14.644Z,32.40
2018-08-04T13:45:42.307Z,34.70
2018-08-04T13:48:09.934Z,35.70
2018-08-04T13:50:37.568Z,37.40
2018-08-04T13:53:05.163Z,38.40
2018-08-04T13:55:32.868Z,37.40
2018-08-04T13:58:01.578Z,38.90
2018-08-04T14:00:30.050Z,39.50
2018-08-04T14:02:57.903Z,39.60
2018-08-04T14:05:25.589Z,41.40
2018-08-04T14:07:53.278Z,41.70
2018-08-04T14:10:20.943Z,41.40
2018-08-04T14:12:48.666Z,43.60
2018-08-04T14:15:16.487Z,43.10
2018-08-04T14:17:44.230Z,43.90
2018-08-04T14:20:11.896Z,45.00
2018-08-04T14:22:39.508Z,46.40
2018-08-04T14:25:07.225Z,47.00
2018-08-04T14:27:34.868Z,47.00
2018-08-04T14:30:03.168Z,48.50
2018-08-04T14:32:30.881Z,47.70
2018-08-04T14:34:58.499Z,48.50
2018-08-04T14:37:26.153Z,46.90
2018-08-04T14:42:28.091Z,45.50
2018-08-04T14:44:55.725Z,43.60
2018-08-04T14:47:23.335Z,42.20
2018-08-04T14:49:50.937Z,42.20
2018-08-04T14:52:18.536Z,41.80
2018-08-04T14:54:46.174Z,39.20
2018-08-04T14:57:13.743Z,40.00
2018-08-04T14:59:41.327Z,40.80
2018-08-04T15:02:09.068Z,39.90
2018-08-04T15:04:36.766Z,39.70
2018-08-04T15:07:04.354Z,40.40
2018-08-04T15:09:32.483Z,39.60
2018-08-04T15:12:00.075Z,40.10
2018-08-04T15:14:28.216Z,38.60
2018-08-04T15:16:55.840Z,39.50
2018-08-04T15:19:23.475Z,38.80
2018-08-04T15:21:51.064Z,37.20
2018-08-04T15:24:18.676Z,35.90
2018-08-04T15:26:46.296Z,34.30
2018-08-04T15:29:14.478Z,34.20
2018-08-04T15:31:42.035Z,35.80
2018-08-04T15:34:09.640Z,37.20
2018-08-04T15:36:37.295Z,37.70
2018-08-04T15:39:07.372Z,38.80
2018-08-04T15:41:35.034Z,37.90
2018-08-04T15:44:02.641Z,37.70
2018-08-04T15:46:31.196Z,37.30
2018-08-04T15:48:58.799Z,37.60
2018-08-04T15:51:26.453Z,38.80
2018-08-04T15:53:54.046Z,36.40
2018-08-04T15:56:21.665Z,37.90
2018-08-04T15:58:49.904Z,39.00
2018-08-04T16:01:17.527Z,39.90
2018-08-04T16:03:45.214Z,40.40
2018-08-04T16:06:12.765Z,40.50
2018-08-04T16:08:41.123Z,39.80
2018-08-04T16:11:08.694Z,42.00
2018-08-04T16:13:36.286Z,41.20
2018-08-04T16:16:03.876Z,43.20
2018-08-04T16:18:31.514Z,44.80
2018-08-04T16:20:59.127Z,46.00
2018-08-04T16:23:26.697Z,46.60
2018-08-04T16:25:54.296Z,47.40
2018-08-04T16:28:21.848Z,46.90
2018-08-04T16:30:49.466Z,47.00
2018-08-04T16:33:17.070Z,47.10
2018-08-04T16:35:44.613Z,48.30
2018-08-04T16:38:12.163Z,47.70
2018-08-04T16:40:39.786Z,47.80
2018-08-04T16:43:07.376Z,49.10
2018-08-04T16:45:34.958Z,49.00
2018-08-04T16:48:02.743Z,50.90
2018-08-04T16:50:30.309Z,49.50
2018-08-04T16:52:57.875Z,49.00
2018-08-04T16:55:25.474Z,51.40
2018-08-04T16:57:53.141Z,51.60
2018-08-04T17:00:20.733Z,52.40
2018-08-04T17:02:48.374Z,55.60
2018-08-04T17:05:15.981Z,60.70
2018-08-04T17:07:43.644Z,63.40
2018-08-04T17:12:38.756Z,55.40
2018-08-04T17:15:06.416Z,54.50
2018-08-04T17:17:34.110Z,56.70
2018-08-04T17:20:01.871Z,54.90
2018-08-04T17:22:29.507Z,56.60
2018-08-04T17:24:57.129Z,57.30
2018-08-04T17:27:24.818Z,58.80
2018-08-04T17:29:52.453Z,54.60
2018-08-04T17:32:20.083Z,56.70
2018-08-04T17:34:47.643Z,55.60
2018-08-04T17:37:15.298Z,56.80
2018-08-04T17:39:42.898Z,57.80
2018-08-04T17:42:10.540Z,58.90
2018-08-04T17:44:38.160Z,57.80
2018-08-04T17:47:05.802Z,58.70
2018-08-04T17:49:33.404Z,59.10
2018-08-04T17:52:01.144Z,60.00
2018-08-04T17:54:28.749Z,61.20
2018-08-04T17:56:56.431Z,60.60
2018-08-04T17:59:24.065Z,59.90
2018-08-04T18:01:51.664Z,60.20
2018-08-04T18:04:19.362Z,60.40
2018-08-04T18:06:47.003Z,61.60
2018-08-04T18:09:14.609Z,62.40
2018-08-04T18:11:42.191Z,62.70
2018-08-04T18:14:09.840Z,62.00
2018-08-04T18:16:37.380Z,61.90
2018-08-04T18:19:05.146Z,61.70
2018-08-04T18:21:33.010Z,60.90
2018-08-04T18:24:00.629Z,60.90
2018-08-04T18:26:28.232Z,61.70
2018-08-04T18:28:55.866Z,62.20
2018-08-04T18:31:23.544Z,62.80
2018-08-04T18:33:51.225Z,62.90
2018-08-04T18:36:18.920Z,62.70
2018-08-04T18:38:46.554Z,62.80
2018-08-04T18:41:14.199Z,63.10
2018-08-04T18:43:41.821Z,62.90
2018-08-04T18:46:09.462Z,62.20
2018-08-04T18:48:37.086Z,62.50
2018-08-04T18:51:04.670Z,62.50
2018-08-04T18:53:32.248Z,62.90
2018-08-04T18:55:59.964Z,63.10
2018-08-04T18:58:27.495Z,63.50
2018-08-04T19:00:55.715Z,64.00
2018-08-04T19:03:23.342Z,64.50
2018-08-04T19:05:51.075Z,64.20
2018-08-04T19:08:18.826Z,64.40
2018-08-04T19:10:46.472Z,63.90
2018-08-04T19:13:14.156Z,64.10
2018-08-04T19:15:42.023Z,64.70
2018-08-04T19:18:09.623Z,65.20
2018-08-04T19:20:37.829Z,65.60
2018-08-04T19:23:06.492Z,65.40
2018-08-04T19:25:34.131Z,65.10
2018-08-04T19:28:01.846Z,65.30
2018-08-04T19:30:29.447Z,65.00
2018-08-04T19:32:59.422Z,65.30
2018-08-04T19:35:27.948Z,65.30
2018-08-04T19:37:55.650Z,65.70
2018-08-04T19:40:23.219Z,65.60
2018-08-04T19:42:50.894Z,65.90
2018-08-04T19:45:18.514Z,65.50
2018-08-04T19:47:46.165Z,66.20
2018-08-04T19:50:14.274Z,66.80
2018-08-04T19:52:42.850Z,66.60
2018-08-04T19:55:10.528Z,67.10
2018-08-04T19:57:38.953Z,67.60
2018-08-04T20:00:06.848Z,67.60
2018-08-04T20:02:34.558Z,67.50
2018-08-04T20:05:02.376Z,67.70
2018-08-04T20:07:29.974Z,68.10
2018-08-04T20:09:57.588Z,67.50
2018-08-04T20:12:25.855Z,67.40
2018-08-04T20:14:53.553Z,67.70
2018-08-04T20:17:21.134Z,67.60
2018-08-04T20:19:48.765Z,68.00
2018-08-04T20:22:17.014Z,68.90
2018-08-04T20:24:45.161Z,68.70
2018-08-04T20:27:12.910Z,69.10
2018-08-04T20:29:40.686Z,69.10
2018-08-04T20:32:08.654Z,69.30
2018-08-04T20:34:36.288Z,69.10
2018-08-04T20:37:03.932Z,68.90
2018-08-04T20:39:31.836Z,69.30
2018-08-04T20:41:59.438Z,69.80
2018-08-04T20:44:27.086Z,70.50
2018-08-04T20:46:54.931Z,71.10
2018-08-04T20:49:22.497Z,71.80
2018-08-04T20:51:50.546Z,72.20
2018-08-04T20:54:18.174Z,72.20
2018-08-04T20:56:45.769Z,71.90
2018-08-04T20:59:13.430Z,71.20
2018-08-04T21:01:59.145Z,71.70
2018-08-04T21:04:27.216Z,71.40
2018-08-04T21:06:54.811Z,71.40
2018-08-04T21:09:22.558Z,71.40
2018-08-04T21:11:51.463Z,71.60
2018-08-04T21:14:20.608Z,72.00
2018-08-04T21:16:49.017Z,72.10
2018-08-04T21:19:17.084Z,72.60
2018-08-04T21:21:44.643Z,73.00
2018-08-04T21:24:12.266Z,72.50
2018-08-04T21:26:40.575Z,72.50
2018-08-04T21:29:08.203Z,72.30
2018-08-04T21:31:35.875Z,72.20
2018-08-04T21:34:03.551Z,72.20
2018-08-04T21:36:31.761Z,73.20
2018-08-04T21:39:00.283Z,73.40
2018-08-04T21:41:28.474Z,73.90
2018-08-04T21:43:56.107Z,74.10
2018-08-04T21:46:23.675Z,74.40
2018-08-04T21:48:51.342Z,74.20
2018-08-04T21:51:18.960Z,73.70
2018-08-04T21:53:46.579Z,73.60
2018-08-04T21:56:14.225Z,73.50
2018-08-04T21:58:41.877Z,73.30
2018-08-04T22:01:11.743Z,73.70
2018-08-04T22:03:41.828Z,73.90
2018-08-04T22:06:09.584Z,74.20
2018-08-04T22:09:40.325Z,74.40
2018-08-04T22:12:08.594Z,75.00
2018-08-04T22:14:36.970Z,75.30
2018-08-04T22:17:05.311Z,75.30
2018-08-04T22:19:32.891Z,75.70
2018-08-04T22:22:00.524Z,75.90
2018-08-04T22:26:56.383Z,75.40
2018-08-04T22:29:24.894Z,75.10
2018-08-04T22:31:52.500Z,75.50
2018-08-04T22:34:20.094Z,76.10
2018-08-04T22:36:47.736Z,76.10
2018-08-04T22:39:15.340Z,76.10
2018-08-04T22:41:42.915Z,75.70
2018-08-04T22:44:10.504Z,75.90
2018-08-04T22:49:05.626Z,76.20
2018-08-04T22:56:28.124Z,76.50
2018-08-04T22:58:55.732Z,76.40
2018-08-04T23:01:23.373Z,76.60
2018-08-04T23:03:51.022Z,76.90
2018-08-04T23:06:18.656Z,76.80
2018-08-04T23:08:46.252Z,76.90
2018-08-04T23:11:13.821Z,77.10
2018-08-04T23:13:41.382Z,77.50
2018-08-04T23:16:08.984Z,77.50
2018-08-04T23:18:36.580Z,77.90
2018-08-04T23:21:04.332Z,77.10
2018-08-04T23:23:31.877Z,77.20
2018-08-04T23:25:59.444Z,77.20
2018-08-04T23:28:27.152Z,77.20
2018-08-04T23:30:54.711Z,77.40
2018-08-04T23:33:22.497Z,77.30
2018-08-04T23:35:50.105Z,77.70
2018-08-04T23:38:17.659Z,78.30
2018-08-04T23:40:45.224Z,78.50
2018-08-04T23:43:12.799Z,78.30
2018-08-04T23:45:40.376Z,78.30
2018-08-04T23:48:07.923Z,78.40
2018-08-04T23:50:35.525Z,78.30
2018-08-04T23:55:30.575Z,78.60
2018-08-04T23:57:58.134Z,78.80
